createdAt,value
2018-08-18T00:01:57.708Z,78.93
2018-08-18T00:04:55.587Z,79.79
2018-08-18T00:07:53.868Z,79.66
2018-08-18T00:10:51.802Z,79.93
2018-08-18T00:13:59.948Z,80.06
2018-08-18T00:16:57.995Z,79.64
2018-08-18T00:20:03.076Z,78.58
2018-08-18T00:23:01.038Z,78.70
2018-08-18T00:25:59.108Z,78.45
2018-08-18T00:28:57.048Z,78.60
2018-08-18T00:31:55.833Z,79.14
2018-08-18T00:34:58.983Z,79.75
2018-08-18T00:37:56.508Z,79.43
2018-08-18T00:40:54.344Z,79.21
2018-08-18T00:43:52.361Z,79.14
2018-08-18T00:46:51.457Z,79.14
2018-08-18T00:49:49.535Z,78.99
2018-08-18T00:52:47.500Z,79.58
2018-08-18T00:55:45.638Z,80.07
2018-08-18T00:58:42.691Z,80.84
2018-08-18T01:01:39.810Z,81.17
2018-08-18T01:04:37.772Z,80.99
2018-08-18T01:07:34.865Z,81.14
2018-08-18T01:10:32.608Z,81.64
2018-08-18T01:13:30.668Z,81.82
2018-08-18T01:16:27.712Z,82.35
2018-08-18T01:19:27.551Z,80.89
2018-08-18T01:22:25.621Z,80.94
2018-08-18T01:25:23.584Z,80.86
2018-08-18T01:28:21.683Z,80.01
2018-08-18T01:31:32.047Z,80.37
2018-08-18T01:34:29.893Z,80.74
2018-08-18T01:37:28.564Z,81.28
2018-08-18T01:40:26.521Z,80.94
2018-08-18T01:43:23.712Z,80.89
2018-08-18T01:46:23.752Z,80.06
2018-08-18T01:49:57.167Z,80.53
2018-08-18T01:52:54.103Z,80.85
2018-08-18T01:55:52.255Z,80.29
2018-08-18T01:58:49.255Z,81.13
2018-08-18T02:01:47.424Z,81.03
2018-08-18T02:04:44.440Z,80.53
2018-08-18T02:07:42.385Z,80.23
2018-08-18T02:10:39.449Z,80.88
2018-08-18T02:13:36.598Z,81.13
2018-08-18T02:16:34.891Z,81.16
2018-08-18T02:19:32.246Z,81.04
2018-08-18T02:22:31.072Z,81.34
2018-08-18T02:25:28.977Z,80.49
2018-08-18T02:28:33.071Z,81.03
2018-08-18T02:31:29.911Z,81.05
2018-08-18T02:34:27.865Z,79.15
2018-08-18T02:37:25.716Z,79.37
2018-08-18T02:40:25.773Z,80.52
2018-08-18T02:43:28.915Z,80.63
2018-08-18T02:46:38.724Z,81.36
2018-08-18T02:49:40.892Z,81.95
2018-08-18T02:52:38.355Z,81.74
2018-08-18T02:55:35.819Z,81.41
2018-08-18T02:58:32.840Z,82.19
2018-08-18T03:01:34.857Z,82.39
2018-08-18T03:04:32.794Z,81.77
2018-08-18T03:07:30.168Z,81.50
2018-08-18T03:10:33.211Z,81.55
2018-08-18T03:13:33.406Z,82.07
2018-08-18T03:16:31.243Z,82.05
2018-08-18T03:19:28.432Z,81.72
2018-08-18T03:22:25.548Z,81.15
2018-08-18T03:25:22.595Z,80.78
2018-08-18T03:28:20.587Z,80.45
2018-08-18T03:31:17.955Z,81.63
2018-08-18T03:34:15.614Z,82.04
2018-08-18T03:37:12.890Z,82.02
2018-08-18T03:40:09.959Z,80.44
2018-08-18T03:43:06.983Z,81.50
2018-08-18T03:46:04.903Z,81.28
2018-08-18T03:49:02.630Z,81.18
2018-08-18T03:52:00.771Z,81.43
2018-08-18T03:54:58.804Z,81.85
2018-08-18T03:58:01.244Z,81.80
2018-08-18T04:00:58.737Z,82.00
2018-08-18T04:03:56.503Z,82.16
2018-08-18T04:06:54.766Z,82.20
2018-08-18T04:09:51.983Z,82.33
2018-08-18T04:12:49.606Z,81.28
2018-08-18T04:15:46.961Z,81.05
2018-08-18T04:18:43.815Z,81.24
2018-08-18T04:21:41.645Z,82.17
2018-08-18T04:24:47.416Z,81.64
2018-08-18T04:28:03.346Z,81.83
2018-08-18T04:31:00.845Z,81.27
2018-08-18T04:33:57.887Z,80.74
2018-08-18T04:36:55.115Z,79.76
2018-08-18T04:39:52.155Z,80.35
2018-08-18T04:42:49.863Z,79.15
2018-08-18T04:45:47.393Z,79.11
2018-08-18T04:48:50.989Z,77.24
2018-08-18T04:51:48.129Z,76.37
2018-08-18T04:54:46.067Z,74.76
2018-08-18T04:57:43.855Z,74.68
2018-08-18T05:00:41.659Z,72.71
2018-08-18T05:03:38.961Z,71.89
2018-08-18T05:06:37.807Z,69.60
2018-08-18T05:09:34.771Z,67.43
2018-08-18T05:12:32.637Z,64.06
2018-08-18T05:15:30.474Z,59.34
2018-08-18T05:18:28.463Z,58.89
2018-08-18T05:21:27.359Z,56.39
2018-08-18T05:24:36.547Z,54.94
2018-08-18T05:27:33.543Z,55.38
2018-08-18T05:30:30.622Z,53.36
2018-08-18T05:33:27.661Z,51.93
2018-08-18T05:36:25.734Z,51.46
2018-08-18T05:39:23.667Z,50.00
2018-08-18T05:42:20.803Z,49.19
2018-08-18T05:45:28.280Z,50.08
2018-08-18T05:48:26.436Z,49.03
2018-08-18T05:51:23.903Z,49.45
2018-08-18T05:54:27.704Z,50.62
2018-08-18T05:57:25.989Z,50.90
2018-08-18T06:00:25.123Z,52.26
2018-08-18T06:03:22.435Z,51.05
2018-08-18T06:06:21.368Z,50.36
2018-08-18T06:09:21.362Z,50.55
2018-08-18T06:12:25.320Z,50.71
2018-08-18T06:15:24.200Z,50.76
2018-08-18T06:18:22.386Z,49.88
2018-08-18T06:21:19.512Z,50.13
2018-08-18T06:24:16.775Z,48.71
2018-08-18T06:27:14.256Z,46.43
2018-08-18T06:30:12.561Z,46.97
2018-08-18T06:33:09.411Z,48.20
2018-08-18T06:36:06.637Z,47.83
2018-08-18T06:39:04.183Z,46.24
2018-08-18T06:42:02.008Z,45.18
2018-08-18T06:44:59.943Z,45.86
2018-08-18T06:47:57.815Z,45.06
2018-08-18T06:50:55.576Z,44.62
2018-08-18T06:53:55.696Z,44.97
2018-08-18T06:56:53.787Z,43.75
2018-08-18T06:59:51.855Z,44.82
2018-08-18T07:02:49.003Z,42.11
2018-08-18T07:05:46.715Z,42.34
2018-08-18T07:08:50.493Z,42.27
2018-08-18T07:11:48.265Z,39.29
2018-08-18T07:14:46.559Z,38.06
2018-08-18T07:17:44.516Z,38.25
2018-08-18T07:20:42.213Z,38.49
2018-08-18T07:23:40.183Z,37.52
2018-08-18T07:26:37.515Z,36.35
2018-08-18T07:29:35.336Z,38.08
2018-08-18T07:32:32.950Z,38.90
2018-08-18T07:35:31.014Z,37.20
2018-08-18T07:38:28.904Z,37.61
2018-08-18T07:41:26.875Z,34.78
2018-08-18T07:44:25.016Z,35.73
2018-08-18T07:47:24.855Z,34.92
2018-08-18T07:50:22.517Z,36.14
2018-08-18T07:53:21.573Z,35.83
2018-08-18T07:56:19.324Z,34.87
2018-08-18T07:59:17.251Z,34.09
2018-08-18T08:02:15.074Z,32.70
2018-08-18T08:05:12.422Z,33.45
2018-08-18T08:08:09.944Z,34.60
2018-08-18T08:11:14.292Z,35.32
2018-08-18T08:14:11.418Z,37.07
2018-08-18T08:17:08.714Z,36.50
2018-08-18T08:20:06.037Z,35.91
2018-08-18T08:23:04.680Z,35.15
2018-08-18T08:26:02.013Z,36.19
2018-08-18T08:28:59.890Z,34.23
2018-08-18T08:31:58.081Z,33.86
2018-08-18T08:34:56.137Z,34.43
2018-08-18T08:37:55.137Z,34.04
2018-08-18T08:40:53.213Z,34.41
2018-08-18T08:43:57.315Z,33.97
2018-08-18T08:46:59.194Z,34.27
2018-08-18T08:49:56.260Z,32.55
2018-08-18T08:52:57.499Z,32.51
2018-08-18T08:55:55.534Z,33.81
2018-08-18T08:58:57.842Z,32.50
2018-08-18T09:01:55.942Z,32.83
2018-08-18T09:04:54.025Z,32.14
2018-08-18T09:07:51.880Z,31.38
2018-08-18T09:10:49.951Z,33.03
2018-08-18T09:13:48.043Z,31.05
2018-08-18T09:16:45.604Z,32.52
2018-08-18T09:19:42.756Z,32.41
2018-08-18T09:22:39.923Z,32.10
2018-08-18T09:25:38.284Z,31.68
2018-08-18T09:28:36.167Z,32.55
2018-08-18T09:31:34.829Z,35.01
2018-08-18T09:34:32.505Z,35.09
2018-08-18T09:37:29.544Z,34.61
2018-08-18T09:40:27.656Z,35.04
2018-08-18T09:43:31.675Z,35.23
2018-08-18T09:46:28.726Z,36.98
2018-08-18T09:49:26.524Z,36.71
2018-08-18T09:52:25.595Z,38.31
2018-08-18T09:55:23.489Z,40.24
2018-08-18T09:58:21.536Z,41.29
2018-08-18T10:01:19.438Z,41.51
2018-08-18T10:04:17.436Z,41.79
2018-08-18T10:07:15.422Z,40.99
2018-08-18T10:10:13.429Z,41.85
2018-08-18T10:13:11.387Z,41.32
2018-08-18T10:16:09.469Z,40.84
2018-08-18T10:19:07.468Z,40.64
2018-08-18T10:22:05.180Z,41.34
2018-08-18T10:25:03.072Z,40.92
2018-08-18T10:28:02.126Z,41.56
2018-08-18T10:31:00.060Z,41.64
2018-08-18T10:33:58.076Z,41.46
2018-08-18T10:37:13.242Z,41.24
2018-08-18T10:40:17.188Z,40.78
2018-08-18T10:43:14.977Z,41.05
2018-08-18T10:46:12.583Z,41.58
2018-08-18T10:49:10.417Z,41.08
2018-08-18T10:52:20.479Z,40.34
2018-08-18T10:55:18.484Z,38.38
2018-08-18T10:58:21.417Z,36.35
2018-08-18T11:01:19.234Z,35.36
2018-08-18T11:04:16.359Z,36.67
2018-08-18T11:07:13.334Z,36.85
2018-08-18T11:10:11.181Z,36.35
2018-08-18T11:13:08.442Z,33.43
2018-08-18T11:16:06.335Z,33.83
2018-08-18T11:19:04.260Z,32.84
2018-08-18T11:22:04.303Z,32.87
2018-08-18T11:25:02.128Z,32.49
2018-08-18T11:28:01.296Z,32.45
2018-08-18T11:30:58.295Z,34.28
2018-08-18T11:34:00.230Z,34.77
2018-08-18T11:37:06.567Z,34.30
2018-08-18T11:40:08.665Z,35.08
2018-08-18T11:43:05.712Z,38.10
2018-08-18T11:46:03.050Z,39.86
2018-08-18T11:49:00.428Z,39.58
2018-08-18T11:51:58.351Z,40.28
2018-08-18T11:54:56.251Z,39.94
2018-08-18T11:57:53.339Z,39.30
2018-08-18T12:00:57.893Z,40.26
2018-08-18T12:03:56.017Z,39.79
2018-08-18T12:06:59.971Z,39.77
2018-08-18T12:10:00.103Z,40.76
2018-08-18T12:12:57.986Z,40.18
2018-08-18T12:16:06.295Z,40.02
2018-08-18T12:19:03.998Z,39.06
2018-08-18T12:22:01.916Z,39.58
2018-08-18T12:25:05.237Z,40.14
2018-08-18T12:28:03.150Z,39.40
2018-08-18T12:31:01.277Z,39.36
2018-08-18T12:33:59.060Z,39.40
2018-08-18T12:36:57.243Z,39.02
2018-08-18T12:39:54.970Z,39.03
2018-08-18T12:42:52.768Z,39.79
2018-08-18T12:45:54.939Z,39.70
2018-08-18T12:48:53.003Z,39.70
2018-08-18T12:51:51.245Z,39.14
2018-08-18T12:54:49.139Z,39.59
2018-08-18T12:57:53.369Z,39.30
2018-08-18T13:00:50.728Z,38.96
2018-08-18T13:03:48.516Z,38.78
2018-08-18T13:06:50.090Z,38.87
2018-08-18T13:09:47.732Z,38.96
2018-08-18T13:12:45.598Z,38.87
2018-08-18T13:15:43.376Z,38.45
2018-08-18T13:18:40.502Z,37.41
2018-08-18T13:21:38.368Z,38.41
2018-08-18T13:24:36.258Z,38.49
2018-08-18T13:27:34.328Z,37.55
2018-08-18T13:30:33.311Z,38.07
2018-08-18T13:33:31.442Z,38.26
2018-08-18T13:36:28.568Z,36.81
2018-08-18T13:39:27.775Z,37.82
2018-08-18T13:42:37.492Z,38.15
2018-08-18T13:45:41.836Z,38.03
2018-08-18T13:48:39.514Z,38.80
2018-08-18T13:51:37.502Z,37.85
2018-08-18T13:54:34.840Z,37.94
2018-08-18T13:57:43.093Z,38.15
2018-08-18T14:00:40.938Z,38.03
2018-08-18T14:03:54.373Z,37.50
2018-08-18T14:06:57.719Z,37.57
2018-08-18T14:10:02.136Z,37.52
2018-08-18T14:13:00.485Z,37.38
2018-08-18T14:16:04.206Z,37.01
2018-08-18T14:19:02.248Z,37.30
2018-08-18T14:22:15.077Z,37.82
2018-08-18T14:25:12.431Z,38.34
2018-08-18T14:28:11.623Z,38.15
2018-08-18T14:31:09.512Z,37.13
2018-08-18T14:34:07.615Z,37.85
2018-08-18T14:37:10.704Z,37.58
2018-08-18T14:40:08.036Z,37.32
2018-08-18T14:43:05.188Z,37.97
2018-08-18T14:46:03.144Z,37.46
2018-08-18T14:49:01.021Z,37.38
2018-08-18T14:51:59.085Z,37.86
2018-08-18T14:54:56.371Z,37.71
2018-08-18T14:58:01.516Z,37.34
2018-08-18T15:01:03.359Z,37.56
2018-08-18T15:04:01.170Z,37.57
2018-08-18T15:06:59.219Z,37.97
2018-08-18T15:10:00.422Z,37.86
2018-08-18T15:12:58.470Z,37.90
2018-08-18T15:15:56.508Z,37.28
2018-08-18T15:18:54.182Z,37.57
2018-08-18T15:21:52.191Z,37.17
2018-08-18T15:24:49.191Z,37.86
2018-08-18T15:27:47.346Z,37.58
2018-08-18T15:30:45.787Z,37.70
2018-08-18T15:33:43.128Z,37.58
2018-08-18T15:36:47.141Z,38.66
2018-08-18T15:39:47.107Z,37.64
2018-08-18T15:42:44.421Z,37.89
2018-08-18T15:45:42.529Z,38.23
2018-08-18T15:48:40.708Z,37.22
2018-08-18T15:51:37.691Z,37.62
2018-08-18T15:54:37.881Z,37.76
2018-08-18T15:57:36.047Z,37.77
2018-08-18T16:06:04.446Z,37.14
2018-08-18T16:09:02.501Z,37.10
2018-08-18T16:12:00.321Z,37.43
2018-08-18T16:14:58.076Z,37.11
2018-08-18T16:17:56.020Z,39.75
2018-08-18T16:20:55.764Z,39.81
2018-08-18T16:23:53.646Z,38.21
2018-08-18T16:26:50.600Z,38.93
2018-08-18T16:29:48.564Z,38.48
2018-08-18T16:32:46.745Z,39.30
2018-08-18T16:35:44.708Z,40.04
2018-08-18T16:38:42.835Z,39.63
2018-08-18T16:41:40.552Z,40.69
2018-08-18T16:44:38.551Z,40.13
2018-08-18T16:47:36.648Z,39.44
2018-08-18T16:50:34.528Z,38.84
2018-08-18T16:53:32.381Z,38.65
2018-08-18T16:56:36.691Z,38.37
2018-08-18T16:59:34.868Z,38.83
2018-08-18T17:02:43.806Z,39.81
2018-08-18T17:05:41.788Z,39.20
2018-08-18T17:08:39.583Z,39.37
2018-08-18T17:11:37.460Z,40.27
2018-08-18T17:14:35.501Z,40.76
2018-08-18T17:17:33.357Z,40.12
2018-08-18T17:20:32.176Z,39.79
2018-08-18T17:23:29.963Z,40.75
2018-08-18T17:26:27.892Z,40.79
2018-08-18T17:29:25.762Z,41.35
2018-08-18T17:32:23.518Z,41.40
2018-08-18T17:35:21.517Z,41.79
2018-08-18T17:38:19.182Z,41.23
2018-08-18T17:41:17.042Z,42.47
2018-08-18T17:44:14.927Z,42.49
2018-08-18T17:47:12.825Z,42.59
2018-08-18T17:50:10.538Z,43.02
2018-08-18T17:53:08.436Z,43.02
2018-08-18T17:56:12.359Z,42.93
2018-08-18T17:59:10.230Z,42.96
2018-08-18T18:02:16.212Z,42.86
2018-08-18T18:05:15.075Z,43.13
2018-08-18T18:08:15.082Z,43.93
2018-08-18T18:11:12.743Z,43.57
2018-08-18T18:14:10.741Z,43.06
2018-08-18T18:17:08.591Z,44.03
2018-08-18T18:20:06.474Z,44.13
2018-08-18T18:23:04.289Z,44.63
2018-08-18T18:26:02.334Z,44.37
2018-08-18T18:29:00.391Z,44.61
2018-08-18T18:31:58.432Z,45.51
2018-08-18T18:34:56.267Z,45.64
2018-08-18T18:37:54.149Z,45.80
2018-08-18T18:40:56.176Z,46.65
2018-08-18T18:43:57.568Z,47.05
2018-08-18T18:46:55.096Z,47.70
2018-08-18T18:49:53.194Z,47.96
2018-08-18T18:52:50.538Z,48.64
2018-08-18T18:55:53.421Z,48.83
2018-08-18T18:58:51.454Z,48.72
2018-08-18T19:01:48.695Z,48.95
2018-08-18T19:04:47.374Z,49.82
2018-08-18T19:07:45.343Z,51.45
2018-08-18T19:10:44.216Z,52.41
2018-08-18T19:13:41.824Z,52.11
2018-08-18T19:16:39.747Z,53.00
2018-08-18T19:19:37.916Z,53.03
2018-08-18T19:22:35.908Z,52.58
2018-08-18T19:25:33.980Z,53.20
2018-08-18T19:28:35.368Z,53.04
2018-08-18T19:31:41.665Z,52.60
2018-08-18T19:34:39.594Z,52.42
2018-08-18T19:37:37.657Z,53.04
2018-08-18T19:40:35.977Z,52.94
2018-08-18T19:43:35.076Z,53.15
2018-08-18T19:46:33.221Z,53.31
2018-08-18T19:49:37.363Z,53.16
2018-08-18T19:52:36.275Z,54.27
2018-08-18T19:55:34.301Z,54.24
2018-08-18T19:58:33.142Z,54.87
2018-08-18T20:01:31.186Z,55.07
2018-08-18T20:04:34.157Z,56.13
2018-08-18T20:07:32.104Z,56.57
2018-08-18T20:10:29.977Z,56.23
2018-08-18T20:13:28.898Z,55.84
2018-08-18T20:16:27.127Z,56.93
2018-08-18T20:19:25.887Z,57.93
2018-08-18T20:22:28.108Z,58.86
2018-08-18T20:25:25.739Z,59.57
2018-08-18T20:28:23.480Z,59.73
2018-08-18T20:31:21.467Z,60.88
2018-08-18T20:34:19.176Z,61.22
2018-08-18T20:37:17.007Z,61.40
2018-08-18T20:40:15.936Z,60.11
2018-08-18T20:43:15.856Z,60.55
2018-08-18T20:46:13.876Z,60.17
2018-08-18T20:49:11.757Z,60.49
2018-08-18T20:52:09.539Z,61.45
2018-08-18T20:55:07.428Z,62.41
2018-08-18T20:58:05.488Z,62.37
2018-08-18T21:01:03.380Z,62.75
2018-08-18T21:04:07.296Z,62.71
2018-08-18T21:07:05.262Z,63.55
2018-08-18T21:10:03.249Z,64.27
2018-08-18T21:13:01.302Z,64.06
2018-08-18T21:15:59.204Z,64.53
2018-08-18T21:18:57.116Z,65.34
2018-08-18T21:21:54.999Z,65.00
2018-08-18T21:24:52.916Z,65.40
2018-08-18T21:27:50.755Z,65.28
2018-08-18T21:30:48.776Z,65.78
2018-08-18T21:33:48.678Z,65.56
2018-08-18T21:36:46.728Z,66.06
2018-08-18T21:39:44.658Z,66.08
2018-08-18T21:42:42.627Z,66.75
2018-08-18T21:45:46.654Z,67.50
2018-08-18T21:48:55.051Z,66.99
2018-08-18T21:51:52.905Z,65.77
2018-08-18T21:54:50.874Z,66.70
2018-08-18T21:57:59.431Z,66.11
2018-08-18T22:00:56.420Z,66.39
2018-08-18T22:03:55.492Z,67.57
2018-08-18T22:06:53.631Z,67.39
2018-08-18T22:09:51.547Z,67.91
2018-08-18T22:12:49.356Z,69.11
2018-08-18T22:15:47.205Z,68.84
2018-08-18T22:18:45.018Z,69.26
2018-08-18T22:21:43.127Z,69.33
2018-08-18T22:24:41.165Z,69.02
2018-08-18T22:27:42.001Z,70.03
2018-08-18T22:30:39.671Z,70.18
2018-08-18T22:33:41.743Z,70.27
2018-08-18T22:36:40.801Z,70.41
2018-08-18T22:39:40.984Z,69.85
2018-08-18T22:42:38.633Z,70.55
2018-08-18T22:45:42.690Z,71.14
2018-08-18T22:48:40.673Z,70.52
2018-08-18T22:51:38.404Z,69.83
2018-08-18T22:54:35.608Z,69.48
2018-08-18T22:57:34.758Z,69.46
2018-08-18T23:00:32.112Z,69.68
2018-08-18T23:03:29.458Z,70.29
2018-08-18T23:06:27.344Z,70.98
2018-08-18T23:09:25.527Z,71.57
2018-08-18T23:12:24.620Z,71.98
2018-08-18T23:15:22.464Z,71.72
2018-08-18T23:18:20.083Z,72.11
2018-08-18T23:21:22.057Z,72.00
2018-08-18T23:24:30.271Z,72.01
2018-08-18T23:27:27.782Z,72.36
2018-08-18T23:30:34.521Z,72.64
2018-08-18T23:33:32.549Z,72.88
2018-08-18T23:36:30.513Z,74.05
2018-08-18T23:39:29.244Z,73.85
2018-08-18T23:42:34.394Z,73.93
2018-08-18T23:45:36.537Z,73.93
2018-08-18T23:48:33.879Z,73.70
2018-08-18T23:51:35.883Z,74.06
2018-08-18T23:54:33.711Z,73.88
2018-08-18T23:57:31.704Z,73.50
